Latest Coastal Weather Observations for Friendly Beaches

IDT60701

Issued at 1:42 pm EDT Tuesday 2 March 2021 (issued every 10 minutes, with the page automatically refreshed every 10 minutes)

About coastal observations | Map of coastal stations | Coastal observations for TAS | Marine services | Other Formats
Station Details ID: 092114 Name: FRIENDLY BEACHES Lat: -42.00 Lon: 148.28 Height: 55.0 m
Data from the previous 72 hours. | See also: Recent months at Friendly Beaches
Date/Time
EDT
Wind Sea
Height
m
Swell Vis
km
Cloud Weather Temp
°C
Press
MSL
hPa
Rain since
9am
mm
Dir  Spd
kts
Gust
kts
Height
m
Period
s
Dir
02/01:30pm SSW 14 23 - - - - - - - 16.0 1012.4 0.0
02/01:00pm SSW 13 23 - - - - - - - 15.7 1012.4 0.0
02/12:30pm SSW 14 22 - - - - - - - 14.8 1012.5 0.0
02/12:08pm SW 15 25 - - - - - - - 15.8 1012.4 0.0
02/12:00pm SW 12 20 - - - - - - - 15.8 1012.2 0.0
02/11:30am SW 14 23 - - - - - - - 14.8 1012.2 0.0
02/11:13am SW 15 26 - - - - - - - 15.3 1011.9 0.0
02/11:00am SW 14 23 - - - - - - - 15.0 1011.9 0.0
02/10:39am SW 15 26 - - - - - - - 14.6 1011.7 0.0
02/10:30am SW 12 25 - - - - - - - 14.4 1011.8 0.0
02/10:17am SW 15 25 - - - - - - - 12.8 1011.9 0.0
02/10:00am SW 13 21 - - - - - - - 14.0 1011.5 0.0
02/09:30am SW 13 25 - - - - - - - 12.8 1011.4 0.0
02/09:07am SW 16 27 - - - - - - - 13.2 1010.9 0.0
02/09:00am SW 13 25 - - - - - - - 13.6 1010.8 4.4
02/08:30am SW 15 29 - - - - - - - 12.4 1010.4 4.4
02/08:28am SW 15 29 - - - - - - - 12.4 1010.3 4.4
02/08:00am WSW 11 21 - - - - - - - 11.4 1009.8 4.4
02/07:30am WSW 12 19 - - - - - - - 11.6 1009.2 4.4
02/07:00am WSW 12 19 - - - - - - - 11.3 1008.6 4.4
02/06:30am SW 13 20 - - - - - - - 11.4 1008.3 4.4
02/06:06am SW 15 26 - - - - - - - 11.6 1007.7 4.4
02/06:00am SW 14 24 - - - - - - - 11.5 1007.6 4.4
02/05:30am SW 16 26 - - - - - - - 11.9 1006.9 4.4
02/05:00am SW 15 26 - - - - - - - 11.9 1006.3 4.4
02/04:30am WSW 14 23 - - - - - - - 12.3 1006.2 4.4
02/04:09am WSW 15 27 - - - - - - - 12.5 1006.0 4.4
02/04:00am WSW 15 25 - - - - - - - 12.5 1005.8 4.4
02/03:30am WSW 17 29 - - - - - - - 12.5 1005.3 4.4
02/03:00am WSW 17 31 - - - - - - - 12.3 1004.7 4.4
02/02:30am WSW 16 29 - - - - - - - 12.4 1003.8 4.4
02/02:00am WSW 18 32 - - - - - - - 12.4 1003.4 4.4
02/01:30am WSW 18 32 - - - - - - - 12.5 1003.2 4.4
02/01:00am WSW 16 27 - - - - - - - 12.2 1002.9 4.4
02/12:30am WSW 16 27 - - - - - - - 12.4 1002.8 4.4
02/12:00am WSW 16 29 - - - - - - - 12.7 1003.0 4.4
 
Date/Time
EDT
Wind Sea
Height
m
Swell Vis
km
Cloud Weather Temp
°C
Press
MSL
hPa
Rain since
9am
mm
Dir  Spd
kts
Gust
kts
Height
m
Period
s
Dir
01/11:34pm WSW 15 27 - - - - - - - 13.0 1002.8 4.4
01/11:30pm WSW 14 23 - - - - - - - 13.0 1002.8 4.4
01/11:00pm W 12 22 - - - - - - - 12.7 1002.6 4.4
01/10:30pm W 10 18 - - - - - - - 12.4 1002.5 4.4
01/10:00pm WSW 13 22 - - - - - - - 12.1 1002.2 4.4
01/09:51pm WSW 15 27 - - - - - - - 12.1 1002.1 4.4
01/09:30pm WSW 14 25 - - - - - - - 12.0 1002.0 4.4
01/09:00pm WSW 14 23 - - - - - - - 12.1 1001.7 4.4
01/08:30pm WSW 12 19 - - - - - - - 12.2 1001.1 4.4
01/08:00pm SW 8 13 - - - - - - - 12.2 1000.9 4.4
01/07:30pm SW 7 12 - - - - - - - 12.3 1000.8 4.4
01/07:00pm SW 8 12 - - - - - - - 12.0 1000.9 4.4
01/06:30pm WSW 9 19 - - - - - - - 12.5 1000.3 4.0
01/06:00pm WSW 13 23 - - - - - - - 14.0 1000.0 3.2
01/05:30pm WSW 6 11 - - - - - - - 15.6 999.1 3.2
01/05:00pm WSW 8 13 - - - - - - - 13.8 999.9 3.2
01/04:56pm WSW 9 17 - - - - - - - 13.9 999.8 3.2
01/04:30pm SSE 5 8 - - - - - - - 18.9 998.6 0.0
01/04:00pm SSE 9 12 - - - - - - - 20.9 998.9 0.0
01/03:30pm SSE 8 11 - - - - - - - 20.9 999.6 0.0
01/03:00pm ESE 5 9 - - - - - - - 21.2 1000.2 0.0
01/02:30pm NE 7 10 - - - - - - - 19.5 1000.9 0.0
01/02:00pm NE 7 11 - - - - - - - 21.8 1001.4 0.0
01/01:30pm SE 7 10 - - - - - - - 21.2 1002.1 0.0
01/01:00pm WSW 4 11 - - - - - - - 22.5 1002.9 0.0
01/12:30pm NW 6 11 - - - - - - - 23.1 1003.3 0.0
01/12:00pm W 4 8 - - - - - - - 22.8 1003.9 0.0
01/11:30am W 3 6 - - - - - - - 21.9 1004.6 0.0
01/11:00am NW 5 10 - - - - - - - 20.9 1005.1 0.0
01/10:30am NNW 4 8 - - - - - - - 22.0 1005.4 0.0
01/10:00am WNW 4 8 - - - - - - - 19.9 1005.4 0.0
01/09:30am WNW 5 11 - - - - - - - 17.3 1005.7 0.0
01/09:00am WNW 5 11 - - - - - - - 16.8 1005.9 0.0
01/08:30am NW 5 7 - - - - - - - 16.2 1006.0 0.0
01/08:00am NW 5 11 - - - - - - - 16.0 1006.1 0.0
01/07:30am WNW 2 4 - - - - - - - 14.8 1006.3 0.0
01/07:00am W 3 4 - - - - - - - 14.3 1006.3 0.0
01/06:30am NW 2 3 - - - - - - - 14.3 1006.4 0.0
01/06:00am WSW 3 3 - - - - - - - 15.0 1006.4 0.0
01/05:30am WNW 3 5 - - - - - - - 15.2 1006.8 0.0
01/05:00am WNW 3 4 - - - - - - - 15.2 1007.1 0.0
01/04:30am WNW 5 7 - - - - - - - 15.6 1007.3 0.0
01/04:00am WNW 4 5 - - - - - - - 15.3 1007.4 0.0
01/03:30am CALM 0 0 - - - - - - - 16.0 1007.6 0.0
01/03:00am E 1 2 - - - - - - - 16.2 1007.8 0.0
01/02:30am ESE 2 3 - - - - - - - 16.5 1008.1 0.0
01/02:00am SE 2 2 - - - - - - - 16.8 1008.6 0.0
01/01:30am NE 1 2 - - - - - - - 17.1 1009.0 0.0
01/01:00am CALM 0 1 - - - - - - - 17.1 1009.3 0.0
01/12:30am N 2 3 - - - - - - - 17.1 1009.6 0.0
01/12:00am N 2 4 - - - - - - - 17.2 1010.1 0.0
 
Date/Time
EDT
Wind Sea
Height
m
Swell Vis
km
Cloud Weather Temp
°C
Press
MSL
hPa
Rain since
9am
mm
Dir  Spd
kts
Gust
kts
Height
m
Period
s
Dir
28/11:30pm NNE 3 7 - - - - - - - 17.3 1010.2 0.0
28/11:00pm NE 4 7 - - - - - - - 17.4 1010.4 0.0
28/10:30pm NE 5 8 - - - - - - - 17.3 1010.5 0.0
28/10:00pm NE 5 8 - - - - - - - 17.4 1010.7 0.0
28/09:30pm ENE 6 9 - - - - - - - 17.3 1010.9 0.0
28/09:00pm ENE 4 7 - - - - - - - 17.3 1010.9 0.0
28/08:30pm ENE 6 10 - - - - - - - 17.3 1010.8 0.0
28/08:00pm ENE 5 9 - - - - - - - 17.3 1010.7 0.0
28/07:30pm ENE 5 8 - - - - - - - 17.3 1010.6 0.0
28/07:00pm ENE 5 9 - - - - - - - 17.8 1010.6 0.0
28/06:30pm NE 7 9 - - - - - - - 18.1 1010.5 0.0
28/06:00pm ENE 7 10 - - - - - - - 19.4 1010.4 0.0
28/05:30pm NE 6 9 - - - - - - - 20.6 1010.6 0.0
28/05:00pm ENE 6 9 - - - - - - - 19.0 1010.6 0.0
28/04:30pm ENE 6 9 - - - - - - - 19.4 1010.7 0.0
28/04:00pm ENE 8 10 - - - - - - - 21.1 1010.5 0.0
28/03:30pm ENE 7 11 - - - - - - - 21.6 1010.8 0.0
28/03:00pm ENE 7 11 - - - - - - - 21.1 1011.2 0.0
28/02:30pm ENE 7 11 - - - - - - - 21.1 1011.5 0.0
28/02:00pm E 7 10 - - - - - - - 21.3 1011.7 0.0
28/01:30pm E 7 9 - - - - - - - 21.8 1012.0 0.0
28/01:00pm E 8 10 - - - - - - - 21.4 1012.3 0.0
28/12:30pm ESE 8 10 - - - - - - - 21.5 1012.7 0.0
28/12:00pm ESE 7 9 - - - - - - - 21.6 1013.0 0.0
28/11:30am ESE 7 10 - - - - - - - 20.8 1013.2 0.0
28/11:00am E 3 6 - - - - - - - 20.1 1013.4 0.0
28/10:30am WNW 3 7 - - - - - - - 19.4 1013.5 0.0
28/10:00am WNW 4 7 - - - - - - - 17.9 1013.6 0.0
28/09:30am WSW 4 6 - - - - - - - 17.2 1013.5 0.0
28/09:00am WNW 5 7 - - - - - - - 16.1 1013.4 0.0
28/08:30am W 4 5 - - - - - - - 15.1 1013.1 0.0
28/08:00am WNW 3 4 - - - - - - - 13.2 1013.2 0.0
28/07:30am W 3 4 - - - - - - - 12.9 1013.2 0.0
28/07:00am WNW 4 6 - - - - - - - 12.9 1013.1 0.0
28/06:30am W 4 5 - - - - - - - 13.2 1012.8 0.0
28/06:00am W 4 5 - - - - - - - 12.8 1012.9 0.0
28/05:30am W 4 5 - - - - - - - 12.6 1012.9 0.0
28/05:00am W 5 6 - - - - - - - 12.8 1013.2 0.0
28/04:30am WNW 5 7 - - - - - - - 13.0 1013.3 0.0
28/04:00am WNW 5 6 - - - - - - - 13.1 1013.2 0.0
28/03:30am WNW 5 6 - - - - - - - 12.9 1013.1 0.0
28/03:00am WNW 5 6 - - - - - - - 13.0 1013.2 0.0
28/02:30am W 3 4 - - - - - - - 13.1 1013.3 0.0
28/02:00am WNW 4 5 - - - - - - - 12.7 1013.5 0.0
28/01:30am W 3 4 - - - - - - - 12.4 1013.8 0.0
28/01:00am WNW 4 5 - - - - - - - 12.7 1014.1 0.0
28/12:30am W 4 5 - - - - - - - 12.8 1014.1 0.0
28/12:00am W 4 5 - - - - - - - 13.2 1014.2 0.0
 
Date/Time
EDT
Wind Sea
Height
m
Swell Vis
km
Cloud Weather Temp
°C
Press
MSL
hPa
Rain since
9am
mm
Dir  Spd
kts
Gust
kts
Height
m
Period
s
Dir
27/11:30pm W 4 6 - - - - - - - 13.5 1014.3 0.0
27/11:00pm W 4 5 - - - - - - - 13.5 1014.4 0.0
27/10:30pm W 3 3 - - - - - - - 13.7 1014.3 0.0
27/10:00pm WNW 4 5 - - - - - - - 14.2 1014.4 0.0
27/09:30pm SW 3 4 - - - - - - - 14.3 1014.3 0.0
27/09:00pm S 3 4 - - - - - - - 14.8 1014.3 0.0
27/08:30pm SSE 4 7 - - - - - - - 15.3 1014.2 0.0
27/08:00pm SSE 6 9 - - - - - - - 15.7 1014.0 0.0
27/07:30pm SE 7 10 - - - - - - - 15.8 1013.8 0.0
27/07:00pm SE 7 11 - - - - - - - 16.1 1013.5 0.0
27/06:30pm SSE 8 10 - - - - - - - 16.8 1013.3 0.0
27/06:00pm SE 8 11 - - - - - - - 17.3 1013.3 0.0
27/05:30pm SE 9 12 - - - - - - - 17.5 1013.2 0.0
27/05:00pm SE 10 13 - - - - - - - 17.8 1013.3 0.0
27/04:30pm SE 10 13 - - - - - - - 18.0 1013.3 0.0
27/04:00pm SE 10 14 - - - - - - - 18.0 1013.4 0.0
27/03:30pm SE 10 14 - - - - - - - 19.2 1013.6 0.0
27/03:00pm SE 10 13 - - - - - - - 18.2 1013.7 0.0
27/02:30pm SE 9 13 - - - - - - - 19.4 1013.9 0.0
27/02:00pm SE 8 11 - - - - - - - 18.7 1014.2 0.0

Other formats

Comma delimited format used in spreadsheet applications
http://www.bom.gov.au/fwo/IDT60701/IDT60701.94987.axf

JavaScript Object Notation format (JSON) in row-major order
http://www.bom.gov.au/fwo/IDT60701/IDT60701.94987.json

Data quality

Most of these data are generated automatically and are frequently updated. Quality checks on data are not normally performed. It is possible for incorrect values to appear. Refer to information at About Latest Weather Observations and please check the disclaimer before using these data.